createdAt,value
2022-12-05T00:00:15.755Z,64.50
2022-12-05T00:02:46.207Z,63.50
2022-12-05T00:05:16.577Z,63.40
2022-12-05T00:07:46.813Z,63.10
2022-12-05T00:10:17.134Z,62.50
2022-12-05T00:12:47.405Z,64.00
2022-12-05T00:15:17.715Z,63.20
2022-12-05T00:17:47.896Z,62.80
2022-12-05T00:20:18.245Z,62.80
2022-12-05T00:22:48.862Z,62.00
2022-12-05T00:25:19.527Z,62.10
2022-12-05T00:27:51.165Z,61.70
2022-12-05T00:30:21.593Z,62.60
2022-12-05T00:32:51.919Z,62.90
2022-12-05T00:35:22.150Z,61.30
2022-12-05T00:37:52.377Z,61.10
2022-12-05T00:40:22.647Z,61.10
2022-12-05T00:42:52.865Z,61.30
2022-12-05T00:45:23.961Z,60.70
2022-12-05T00:47:54.258Z,61.10
2022-12-05T00:50:24.478Z,61.20
2022-12-05T00:52:55.059Z,62.00
2022-12-05T00:55:25.853Z,61.50
2022-12-05T00:57:56.566Z,60.80
2022-12-05T01:00:27.179Z,61.70
2022-12-05T01:02:58.707Z,57.90
2022-12-05T01:05:29.285Z,59.30
2022-12-05T01:08:00.115Z,55.80
2022-12-05T01:10:31.121Z,58.00
2022-12-05T01:13:02.051Z,59.00
2022-12-05T01:15:40.636Z,59.10
2022-12-05T01:18:11.753Z,59.60
2022-12-05T01:20:46.545Z,59.50
2022-12-05T01:23:16.994Z,59.70
2022-12-05T01:25:51.157Z,60.60
2022-12-05T01:28:22.761Z,61.70
2022-12-05T01:30:53.564Z,62.00
2022-12-05T01:33:23.820Z,62.00
2022-12-05T01:35:54.692Z,60.70
2022-12-05T01:38:34.371Z,60.30
2022-12-05T01:41:09.992Z,60.20
2022-12-05T01:44:01.737Z,60.70
2022-12-05T01:46:38.448Z,61.00
2022-12-05T01:49:13.174Z,61.20
2022-12-05T01:51:57.877Z,62.90
2022-12-05T01:54:30.034Z,61.80
2022-12-05T01:57:06.344Z,62.50
2022-12-05T01:59:42.011Z,63.10
2022-12-05T02:02:13.112Z,63.50
2022-12-05T02:05:07.897Z,62.90
2022-12-05T02:07:42.119Z,63.20
2022-12-05T02:10:13.212Z,64.00
2022-12-05T02:12:45.422Z,62.80
2022-12-05T02:15:34.484Z,64.00
2022-12-05T02:18:31.740Z,65.10
2022-12-05T02:21:29.149Z,63.50
2022-12-05T02:24:52.056Z,65.20
2022-12-05T02:27:47.867Z,64.80
2022-12-05T02:30:24.270Z,64.10
2022-12-05T02:33:09.363Z,64.60
2022-12-05T02:35:53.033Z,65.50
2022-12-05T02:38:43.289Z,65.20
2022-12-05T02:41:37.633Z,65.70
2022-12-05T02:45:04.255Z,65.40
2022-12-05T02:47:38.682Z,65.00
2022-12-05T02:50:11.997Z,66.60
2022-12-05T02:52:43.445Z,66.50
2022-12-05T02:55:15.336Z,66.30
2022-12-05T02:57:51.887Z,66.90
2022-12-05T03:00:24.045Z,67.90
2022-12-05T03:02:59.934Z,68.50
2022-12-05T03:05:52.302Z,70.80
2022-12-05T03:08:38.808Z,76.00
2022-12-05T03:11:10.052Z,80.60
2022-12-05T03:14:03.555Z,81.50
2022-12-05T03:16:51.322Z,83.10
2022-12-05T03:19:50.270Z,84.10
2022-12-05T03:22:44.584Z,85.50
2022-12-05T03:25:16.039Z,85.50
2022-12-05T03:27:54.612Z,85.80
2022-12-05T03:30:26.291Z,85.70
2022-12-05T03:32:57.643Z,84.70
2022-12-05T03:35:58.207Z,85.50
2022-12-05T03:38:44.354Z,79.00
2022-12-05T03:41:36.158Z,75.70
2022-12-05T03:44:36.341Z,74.30
2022-12-05T03:47:16.363Z,74.50
2022-12-05T03:49:53.465Z,74.30
2022-12-05T03:55:11.392Z,74.40
2022-12-05T03:57:59.363Z,73.70
2022-12-05T04:00:34.556Z,74.30
2022-12-05T04:03:23.104Z,72.10
2022-12-05T04:06:01.692Z,74.00
2022-12-05T04:09:06.676Z,74.30
2022-12-05T04:11:41.950Z,73.90
2022-12-05T04:14:19.259Z,74.40
2022-12-05T04:17:12.659Z,73.60
2022-12-05T04:20:11.471Z,72.30
2022-12-05T04:22:47.888Z,71.30
2022-12-05T04:25:36.953Z,71.10
2022-12-05T04:28:36.453Z,71.30
2022-12-05T04:31:15.573Z,71.50
2022-12-05T04:33:56.592Z,72.20
2022-12-05T04:36:47.369Z,68.90
2022-12-05T04:39:21.134Z,69.40
2022-12-05T04:41:59.899Z,68.50
2022-12-05T04:44:40.478Z,68.40
2022-12-05T04:47:13.191Z,67.00
2022-12-05T04:49:48.016Z,67.50
2022-12-05T04:52:23.905Z,67.00
2022-12-05T04:55:19.801Z,64.00
2022-12-05T04:58:07.760Z,64.30
2022-12-05T05:00:58.643Z,63.70
2022-12-05T05:03:47.058Z,61.30
2022-12-05T05:06:18.228Z,61.30
2022-12-05T05:08:58.100Z,61.10
2022-12-05T05:11:31.479Z,59.60
2022-12-05T05:14:02.270Z,57.60
2022-12-05T05:16:36.262Z,57.00
2022-12-05T05:19:08.033Z,56.90
2022-12-05T05:21:42.737Z,58.20
2022-12-05T05:24:14.681Z,57.60
2022-12-05T05:26:51.204Z,55.60
2022-12-05T05:29:26.582Z,55.40
2022-12-05T05:31:56.869Z,55.90
2022-12-05T05:34:30.599Z,56.00
2022-12-05T05:37:00.882Z,53.90
2022-12-05T05:39:44.716Z,55.30
2022-12-05T05:42:14.940Z,54.70
2022-12-05T05:44:50.950Z,55.70
2022-12-05T05:47:21.603Z,55.20
2022-12-05T05:49:52.293Z,54.60
2022-12-05T05:52:23.870Z,56.80
2022-12-05T05:54:56.696Z,56.60
2022-12-05T05:57:27.319Z,56.90
2022-12-05T05:59:59.409Z,56.50
2022-12-05T06:02:35.480Z,56.40
2022-12-05T06:05:06.421Z,56.00
2022-12-05T06:07:36.661Z,55.10
2022-12-05T06:10:20.682Z,55.80
2022-12-05T06:12:53.361Z,56.20
2022-12-05T06:15:37.276Z,56.30
2022-12-05T06:18:08.912Z,56.20
2022-12-05T06:20:43.920Z,56.50
2022-12-05T06:23:15.121Z,55.30
2022-12-05T06:25:51.615Z,54.00
2022-12-05T06:28:23.863Z,53.80
2022-12-05T06:30:54.854Z,56.00
2022-12-05T06:33:25.239Z,56.00
2022-12-05T06:36:14.026Z,56.40
2022-12-05T06:38:46.315Z,56.50
2022-12-05T06:41:23.519Z,57.90
2022-12-05T06:44:02.288Z,57.80
2022-12-05T06:46:35.203Z,58.70
2022-12-05T06:49:05.468Z,58.50
2022-12-05T06:51:40.163Z,60.70
2022-12-05T06:54:10.870Z,57.90
2022-12-05T06:56:43.003Z,61.00
2022-12-05T06:59:15.268Z,61.10
2022-12-05T07:01:48.022Z,62.10
2022-12-05T07:04:27.935Z,63.40
2022-12-05T07:06:59.147Z,62.80
2022-12-05T07:09:47.874Z,61.40
2022-12-05T07:12:21.267Z,61.50
2022-12-05T07:14:51.623Z,62.70
2022-12-05T07:17:24.061Z,63.50
2022-12-05T07:19:56.003Z,64.80
2022-12-05T07:22:26.748Z,67.60
2022-12-05T07:24:56.972Z,67.20
2022-12-05T07:27:28.477Z,68.30
2022-12-05T07:29:59.539Z,67.90
2022-12-05T07:32:33.585Z,69.20
2022-12-05T07:35:05.373Z,68.50
2022-12-05T07:37:36.056Z,68.90
2022-12-05T07:40:07.010Z,67.60
2022-12-05T07:42:37.390Z,67.60
2022-12-05T07:45:08.136Z,65.80
2022-12-05T07:47:38.431Z,66.10
2022-12-05T07:50:14.158Z,67.30
2022-12-05T07:52:46.091Z,68.00
2022-12-05T07:55:16.850Z,68.20
2022-12-05T07:57:48.701Z,67.70
2022-12-05T08:00:20.112Z,69.30
2022-12-05T08:02:51.330Z,67.30
2022-12-05T08:05:22.016Z,67.00
2022-12-05T08:07:55.127Z,67.20
2022-12-05T08:10:25.465Z,68.20
2022-12-05T08:12:58.558Z,68.20
2022-12-05T08:15:30.671Z,67.80
2022-12-05T08:18:03.277Z,69.30
2022-12-05T08:20:35.648Z,67.80
2022-12-05T08:23:07.048Z,67.50
2022-12-05T08:25:39.116Z,69.70
2022-12-05T08:28:10.920Z,71.20
2022-12-05T08:30:43.439Z,69.60
2022-12-05T08:33:14.536Z,70.40
2022-12-05T08:35:44.878Z,70.50
2022-12-05T08:38:16.784Z,67.90
2022-12-05T08:40:49.464Z,67.10
2022-12-05T08:43:24.309Z,67.80
2022-12-05T08:45:57.007Z,69.90
2022-12-05T08:48:29.879Z,69.20
2022-12-05T08:51:02.317Z,69.40
2022-12-05T08:53:33.734Z,69.20
2022-12-05T08:56:06.877Z,71.00
2022-12-05T08:58:39.477Z,69.90
2022-12-05T09:01:17.586Z,71.00
2022-12-05T09:03:51.865Z,69.00
2022-12-05T09:06:28.326Z,70.50
2022-12-05T09:09:01.024Z,71.20
2022-12-05T09:11:36.181Z,69.60
2022-12-05T09:14:07.273Z,69.80
2022-12-05T09:16:42.218Z,69.70
2022-12-05T09:19:27.857Z,69.80
2022-12-05T09:21:59.305Z,70.10
2022-12-05T09:24:30.073Z,70.00
2022-12-05T09:27:01.529Z,70.60
2022-12-05T09:29:33.825Z,70.40
2022-12-05T09:32:04.573Z,71.10
2022-12-05T09:34:34.971Z,71.10
2022-12-05T09:37:30.899Z,71.10
2022-12-05T09:39:58.578Z,71.30
2022-12-05T09:42:43.433Z,71.00
2022-12-05T09:45:28.367Z,71.70
2022-12-05T09:48:19.706Z,70.80
2022-12-05T09:51:01.316Z,71.90
2022-12-05T09:53:34.016Z,72.00
2022-12-05T09:56:12.925Z,72.80
2022-12-05T09:58:55.169Z,72.90
2022-12-05T10:01:48.136Z,73.40
2022-12-05T10:04:53.375Z,72.10
2022-12-05T10:07:49.571Z,72.90
2022-12-05T10:10:32.271Z,73.50
2022-12-05T10:13:19.542Z,73.10
2022-12-05T10:15:58.861Z,72.30
2022-12-05T10:18:57.174Z,72.20
2022-12-05T10:21:44.748Z,73.30
2022-12-05T10:24:40.202Z,73.30
2022-12-05T10:27:16.155Z,73.20
2022-12-05T10:30:09.810Z,73.10
2022-12-05T10:32:48.219Z,72.80
2022-12-05T10:35:27.994Z,72.40
2022-12-05T10:38:10.548Z,72.10
2022-12-05T10:40:54.638Z,72.20
2022-12-05T10:43:36.555Z,73.60
2022-12-05T10:46:10.654Z,73.20
2022-12-05T10:48:45.669Z,73.50
2022-12-05T10:51:26.464Z,74.50
2022-12-05T10:53:59.971Z,74.60
2022-12-05T10:56:43.698Z,75.50
2022-12-05T10:59:18.444Z,75.80
2022-12-05T11:01:54.265Z,76.00
2022-12-05T11:04:27.679Z,76.50
2022-12-05T11:07:05.077Z,76.40
2022-12-05T11:09:41.514Z,76.10
2022-12-05T11:12:48.613Z,77.00
2022-12-05T11:15:28.853Z,77.50
2022-12-05T11:18:21.082Z,77.40
2022-12-05T11:20:52.718Z,77.50
2022-12-05T11:23:32.167Z,78.20
2022-12-05T11:26:03.329Z,78.50
2022-12-05T11:28:37.571Z,78.80
2022-12-05T11:31:19.659Z,79.40
2022-12-05T11:34:13.749Z,80.20
2022-12-05T11:36:49.603Z,80.50
2022-12-05T11:39:20.484Z,80.40
2022-12-05T11:42:10.761Z,80.60
2022-12-05T11:45:08.272Z,80.10
2022-12-05T11:48:11.485Z,81.10
2022-12-05T11:50:51.219Z,80.80
2022-12-05T11:54:15.395Z,80.50
2022-12-05T11:56:56.889Z,80.20
2022-12-05T11:59:33.442Z,80.00
2022-12-05T12:02:09.795Z,80.00
2022-12-05T12:04:54.136Z,80.50
2022-12-05T12:07:52.345Z,80.00
2022-12-05T12:10:25.870Z,80.40
2022-12-05T12:13:16.027Z,80.40
2022-12-05T12:16:18.257Z,80.20
2022-12-05T12:18:54.836Z,81.00
2022-12-05T12:21:40.927Z,81.30
2022-12-05T12:24:35.610Z,82.00
2022-12-05T12:27:16.590Z,81.90
2022-12-05T12:29:49.686Z,82.30
2022-12-05T12:32:47.310Z,82.50
2022-12-05T12:35:21.092Z,82.70
2022-12-05T12:38:22.378Z,82.90
2022-12-05T12:41:15.552Z,83.00
2022-12-05T12:44:27.418Z,83.10
2022-12-05T12:47:26.236Z,83.60
2022-12-05T12:50:16.593Z,84.50
2022-12-05T12:53:21.193Z,84.60
2022-12-05T12:56:12.455Z,84.50
2022-12-05T12:58:55.184Z,83.90
2022-12-05T13:01:44.289Z,84.10
2022-12-05T13:04:25.614Z,84.40
2022-12-05T13:07:28.620Z,85.10
2022-12-05T13:10:21.000Z,85.40
2022-12-05T13:12:52.246Z,85.20
2022-12-05T13:15:53.193Z,85.40
2022-12-05T13:18:28.547Z,85.60
2022-12-05T13:21:04.893Z,85.60
2022-12-05T13:23:42.882Z,83.80
2022-12-05T13:26:15.380Z,82.20
2022-12-05T13:28:59.253Z,81.90
2022-12-05T13:31:48.310Z,81.50
2022-12-05T13:34:37.012Z,79.80
2022-12-05T13:37:38.518Z,79.90
2022-12-05T13:40:39.723Z,79.60
2022-12-05T13:43:12.159Z,79.60
2022-12-05T13:45:46.081Z,80.80
2022-12-05T13:48:28.631Z,80.30
2022-12-05T13:51:11.356Z,79.40
2022-12-05T13:53:49.762Z,79.60
2022-12-05T13:56:23.186Z,80.00
2022-12-05T13:58:56.408Z,79.60
2022-12-05T14:01:31.592Z,80.60
2022-12-05T14:04:06.123Z,79.40
2022-12-05T14:06:43.598Z,80.00
2022-12-05T14:09:25.260Z,79.50
2022-12-05T14:12:26.171Z,80.10
2022-12-05T14:15:00.034Z,79.70
2022-12-05T14:17:47.200Z,79.70
2022-12-05T14:20:29.957Z,78.90
2022-12-05T14:23:41.361Z,79.00
2022-12-05T14:26:11.953Z,80.70
2022-12-05T14:29:00.971Z,79.50
2022-12-05T14:31:53.576Z,80.50
2022-12-05T14:34:29.089Z,80.00
2022-12-05T14:37:18.797Z,80.90
2022-12-05T14:40:01.765Z,81.00
2022-12-05T14:42:53.055Z,80.60
2022-12-05T14:45:31.696Z,80.20
2022-12-05T14:48:29.085Z,79.50
2022-12-05T14:51:01.603Z,81.30
2022-12-05T14:53:37.170Z,79.80
2022-12-05T14:56:14.105Z,79.70
2022-12-05T14:59:15.429Z,79.90
2022-12-05T15:02:02.676Z,80.20
2022-12-05T15:04:47.184Z,80.30
2022-12-05T15:07:35.493Z,80.70
2022-12-05T15:10:12.929Z,81.00
2022-12-05T15:12:54.161Z,81.80
2022-12-05T15:15:37.252Z,81.90
2022-12-05T15:18:42.054Z,81.30
2022-12-05T15:21:12.723Z,82.10
2022-12-05T15:23:46.109Z,81.90
2022-12-05T15:26:49.873Z,81.60
2022-12-05T15:29:35.117Z,82.40
2022-12-05T15:32:24.747Z,83.00
2022-12-05T15:35:09.401Z,82.30
2022-12-05T15:37:59.216Z,82.50
2022-12-05T15:40:38.873Z,82.60
2022-12-05T15:43:30.368Z,82.50
2022-12-05T15:46:29.804Z,82.70
2022-12-05T15:49:02.905Z,82.90
2022-12-05T15:51:40.107Z,83.90
2022-12-05T15:54:17.199Z,83.80
2022-12-05T15:56:46.950Z,83.70
2022-12-05T15:59:27.460Z,84.10
2022-12-05T16:02:25.255Z,84.20
2022-12-05T16:05:01.201Z,84.80
2022-12-05T16:07:34.500Z,84.30
2022-12-05T16:10:05.294Z,84.20
2022-12-05T16:12:43.343Z,84.40
2022-12-05T16:15:24.396Z,84.50
2022-12-05T16:18:04.312Z,84.70
2022-12-05T16:20:37.297Z,84.60
2022-12-05T16:23:25.747Z,84.90
2022-12-05T16:25:57.021Z,84.90
2022-12-05T16:28:27.767Z,84.40
2022-12-05T16:31:04.393Z,84.20
2022-12-05T16:33:37.730Z,84.20
2022-12-05T16:36:13.925Z,83.40
2022-12-05T16:38:46.653Z,83.40
2022-12-05T16:41:18.810Z,83.50
2022-12-05T16:43:49.706Z,82.40
2022-12-05T16:46:22.117Z,82.70
2022-12-05T16:49:15.435Z,82.80
2022-12-05T16:51:48.616Z,81.80
2022-12-05T16:54:23.480Z,81.60
2022-12-05T16:56:54.390Z,81.50
2022-12-05T16:59:38.722Z,81.50
2022-12-05T17:02:15.429Z,82.00
2022-12-05T17:04:46.283Z,81.70
2022-12-05T17:07:17.157Z,81.20
2022-12-05T17:09:48.511Z,82.00
2022-12-05T17:12:27.432Z,82.00
2022-12-05T17:14:58.368Z,81.00
2022-12-05T17:17:28.885Z,81.70
2022-12-05T17:19:59.153Z,82.20
2022-12-05T17:22:30.372Z,81.70
2022-12-05T17:25:02.928Z,81.70
2022-12-05T17:27:34.037Z,81.90
2022-12-05T17:30:04.516Z,82.20
2022-12-05T17:32:34.746Z,82.10
2022-12-05T17:35:06.989Z,82.50
2022-12-05T17:37:37.388Z,82.50
2022-12-05T17:40:09.036Z,83.00
2022-12-05T17:42:41.300Z,83.20
2022-12-05T17:45:18.586Z,83.50
2022-12-05T17:47:49.803Z,83.90
2022-12-05T17:50:23.682Z,83.50
2022-12-05T17:52:57.791Z,83.70
2022-12-05T17:55:31.468Z,84.10
2022-12-05T17:58:01.708Z,84.30
2022-12-05T18:00:32.517Z,84.00
2022-12-05T18:03:02.962Z,84.70
2022-12-05T18:05:33.635Z,84.70
2022-12-05T18:08:08.450Z,84.60
2022-12-05T18:10:38.831Z,84.60
2022-12-05T18:13:09.069Z,84.70
2022-12-05T18:18:31.646Z,84.70
2022-12-05T18:21:10.364Z,84.50
2022-12-05T18:23:42.413Z,84.70
2022-12-05T18:26:16.003Z,84.30
2022-12-05T18:28:48.938Z,84.70
2022-12-05T18:31:20.559Z,84.60
2022-12-05T18:33:51.072Z,84.60
2022-12-05T18:36:23.416Z,85.00
2022-12-05T18:38:56.346Z,85.10
2022-12-05T18:41:30.621Z,85.50
2022-12-05T18:44:01.587Z,84.70
2022-12-05T18:46:32.749Z,84.70
2022-12-05T18:49:03.617Z,85.10
2022-12-05T18:51:34.239Z,85.20
2022-12-05T18:54:06.193Z,85.00
2022-12-05T18:56:39.623Z,85.10
2022-12-05T18:59:16.710Z,84.70
2022-12-05T19:01:48.295Z,84.70
2022-12-05T19:04:22.423Z,85.00
2022-12-05T19:07:01.169Z,85.50
2022-12-05T19:09:34.040Z,85.60
2022-12-05T19:12:04.297Z,85.40
2022-12-05T19:14:35.363Z,85.10
2022-12-05T19:17:06.027Z,85.50
2022-12-05T19:19:36.693Z,85.80
2022-12-05T19:22:07.310Z,85.20
2022-12-05T19:24:39.973Z,86.00
2022-12-05T19:27:11.880Z,85.80
2022-12-05T19:29:42.492Z,85.10
2022-12-05T19:32:12.794Z,85.10
2022-12-05T19:34:43.298Z,85.20
2022-12-05T19:37:13.541Z,85.20
2022-12-05T19:39:45.645Z,85.00
2022-12-05T19:42:15.912Z,84.10
2022-12-05T19:44:47.896Z,83.80
2022-12-05T19:47:18.237Z,84.20
2022-12-05T19:49:48.745Z,83.30
2022-12-05T19:52:20.077Z,83.40
2022-12-05T19:54:50.421Z,83.90
2022-12-05T19:57:20.747Z,84.10
2022-12-05T19:59:52.327Z,83.90
2022-12-05T20:02:23.142Z,84.30
2022-12-05T20:04:53.917Z,83.60
2022-12-05T20:07:24.901Z,83.90
2022-12-05T20:09:57.306Z,82.80
2022-12-05T20:12:29.339Z,83.60
2022-12-05T20:15:00.507Z,83.20
2022-12-05T20:17:31.476Z,83.70
2022-12-05T20:20:01.695Z,82.80
2022-12-05T20:22:32.666Z,82.60
2022-12-05T20:25:02.957Z,81.80
2022-12-05T20:27:35.809Z,80.30
2022-12-05T20:30:06.178Z,80.20
2022-12-05T20:32:37.837Z,80.20
2022-12-05T20:35:09.429Z,80.50
2022-12-05T20:37:39.844Z,80.20
2022-12-05T20:40:10.913Z,79.60
2022-12-05T20:42:46.407Z,79.80
2022-12-05T20:45:17.218Z,79.60
2022-12-05T20:47:47.867Z,80.00
2022-12-05T20:50:18.239Z,79.60
2022-12-05T20:52:48.485Z,78.50
2022-12-05T20:55:18.789Z,78.00
2022-12-05T20:57:49.014Z,77.20
2022-12-05T21:00:19.498Z,76.80
2022-12-05T21:02:49.997Z,77.20
2022-12-05T21:05:23.154Z,76.50
2022-12-05T21:07:54.167Z,77.00
2022-12-05T21:10:24.410Z,76.90
2022-12-05T21:12:54.716Z,76.00
2022-12-05T21:15:24.897Z,75.50
2022-12-05T21:17:55.321Z,75.60
2022-12-05T21:20:26.059Z,75.40
2022-12-05T21:22:57.302Z,75.00
2022-12-05T21:25:28.205Z,73.20
2022-12-05T21:27:58.862Z,71.20
2022-12-05T21:30:29.168Z,70.40
2022-12-05T21:33:00.201Z,70.80
2022-12-05T21:35:31.246Z,70.90
2022-12-05T21:38:02.973Z,70.10
2022-12-05T21:40:33.205Z,69.80
2022-12-05T21:43:03.495Z,68.30
2022-12-05T21:45:35.676Z,66.30
2022-12-05T21:48:09.966Z,67.90
2022-12-05T21:50:44.787Z,68.30
2022-12-05T21:53:16.006Z,68.60
2022-12-05T21:55:46.526Z,67.70
2022-12-05T21:58:16.878Z,66.60
2022-12-05T22:00:47.165Z,65.70
2022-12-05T22:03:17.444Z,65.50
2022-12-05T22:05:47.766Z,65.50
2022-12-05T22:08:19.664Z,63.70
2022-12-05T22:10:50.047Z,64.20
2022-12-05T22:13:20.790Z,64.50
2022-12-05T22:15:51.121Z,64.20
2022-12-05T22:18:21.486Z,63.80
2022-12-05T22:21:01.906Z,63.10
2022-12-05T22:23:34.510Z,63.00
2022-12-05T22:26:34.399Z,63.50
2022-12-05T22:29:05.641Z,61.30
2022-12-05T22:31:36.176Z,61.00
2022-12-05T22:34:06.564Z,61.50
2022-12-05T22:36:37.205Z,62.60
2022-12-05T22:39:07.479Z,62.40
2022-12-05T22:41:38.001Z,61.90
2022-12-05T22:44:08.362Z,62.00
2022-12-05T22:46:39.534Z,60.90
2022-12-05T22:49:10.412Z,60.70
2022-12-05T22:51:42.293Z,61.50
2022-12-05T22:54:12.942Z,59.00
2022-12-05T22:56:43.698Z,59.60
2022-12-05T22:59:17.965Z,60.60
2022-12-05T23:01:48.407Z,60.40
2022-12-05T23:04:19.193Z,60.80
2022-12-05T23:06:49.638Z,60.90
2022-12-05T23:09:20.479Z,60.30
2022-12-05T23:11:53.835Z,59.40
2022-12-05T23:14:27.797Z,60.50
2022-12-05T23:17:00.121Z,59.70
2022-12-05T23:19:30.458Z,60.80
2022-12-05T23:22:00.926Z,60.10
2022-12-05T23:24:31.230Z,60.70
2022-12-05T23:27:01.970Z,59.80
2022-12-05T23:29:32.729Z,61.30
2022-12-05T23:32:03.332Z,61.10
2022-12-05T23:34:38.657Z,61.30
2022-12-05T23:37:09.306Z,60.90
2022-12-05T23:39:40.583Z,61.00
2022-12-05T23:42:15.327Z,61.50
2022-12-05T23:44:46.140Z,62.40
2022-12-05T23:47:17.145Z,63.30
2022-12-05T23:49:48.284Z,63.90
2022-12-05T23:52:18.700Z,63.70
2022-12-05T23:54:50.333Z,61.90
2022-12-05T23:57:20.743Z,62.10
2022-12-05T23:59:51.344Z,61.90
